Time;durP1;ratioP1;P1;durP2;ratioP2;P2;SDS_P1;SDS_P2;PMS_P1;PMS_P2;Temp;Humidity;BMP_temperature;BMP_pressure;BME280_temperature;BME280_humidity;BME280_pressure;Samples;Min_cycle;Max_cycle;Signal;HPM_P1;HPM_P2
2022/06/19 00:00:33;;;;;;;8.70;4.60;;;;;;;17.26;62.66;98750.79;108012;1277;22650;-77
2022/06/19 00:03:09;;;;;;;6.30;4.10;;;;;;;17.27;62.47;98747.86;108041;1277;22570;-78
2022/06/19 00:05:36;;;;;;;6.80;3.90;;;;;;;17.31;62.34;98747.20;108055;1278;25417;-77
2022/06/19 00:08:04;;;;;;;7.20;4.20;;;;;;;17.38;61.84;98748.80;108037;1277;23185;-77
2022/06/19 00:10:31;;;;;;;11.40;4.20;;;;;;;17.45;61.75;98741.48;108016;1277;22564;-77
2022/06/19 00:12:58;;;;;;;7.70;3.90;;;;;;;17.53;61.28;98743.23;107966;1277;22637;-77
2022/06/19 00:15:25;;;;;;;6.20;3.50;;;;;;;17.61;61.17;98744.58;108016;1278;22541;-77
2022/06/19 00:17:52;;;;;;;6.90;3.80;;;;;;;17.69;61.21;98746.52;108056;1277;22570;-77
2022/06/19 00:20:19;;;;;;;7.60;4.00;;;;;;;17.76;60.58;98736.55;108011;1277;22573;-79
2022/06/19 00:22:46;;;;;;;7.70;4.30;;;;;;;17.80;60.60;98735.84;108039;1277;22563;-76
2022/06/19 00:25:13;;;;;;;6.00;3.70;;;;;;;17.81;60.54;98731.61;107979;1275;22574;-76
2022/06/19 00:27:40;;;;;;;6.30;3.70;;;;;;;17.81;60.50;98726.20;108030;1277;22554;-79
2022/06/19 00:30:11;;;;;;;6.30;3.80;;;;;;;17.80;60.59;98726.63;108036;1277;22549;-77
2022/06/19 00:32:39;;;;;;;6.30;3.30;;;;;;;17.84;60.85;98723.77;108195;1277;22544;-77
2022/06/19 00:35:06;;;;;;;6.80;3.50;;;;;;;17.90;60.71;98720.76;108083;1277;23031;-77
2022/06/19 00:37:34;;;;;;;8.00;3.70;;;;;;;17.94;60.70;98719.85;108022;1277;22540;-77
2022/06/19 00:40:04;;;;;;;6.50;3.70;;;;;;;17.96;60.30;98719.69;108041;1277;22602;-76
2022/06/19 00:42:31;;;;;;;7.40;3.40;;;;;;;17.99;60.01;98715.27;108035;1277;22675;-77
2022/06/19 00:44:58;;;;;;;7.30;3.50;;;;;;;18.05;59.71;98714.65;108068;1277;22534;-77
2022/06/19 00:47:28;;;;;;;9.90;3.20;;;;;;;18.08;59.58;98718.69;108035;1277;22565;-77
2022/06/19 00:50:03;;;;;;;5.80;3.70;;;;;;;18.10;59.33;98715.84;107991;1277;23451;-77
2022/06/19 00:52:38;;;;;;;7.00;3.30;;;;;;;18.12;59.48;98712.00;108004;1277;23388;-77
2022/06/19 00:55:38;;;;;;;5.20;3.10;;;;;;;18.11;59.50;98710.89;108054;1277;22597;-76
2022/06/19 00:58:24;;;;;;;11.20;3.20;;;;;;;18.11;59.20;98710.10;107945;1277;22537;-77
2022/06/19 01:00:56;;;;;;;4.30;2.90;;;;;;;18.13;59.12;98708.94;108098;1277;22566;-76
2022/06/19 01:03:35;;;;;;;7.50;3.10;;;;;;;18.15;59.01;98701.62;108062;1277;22510;-77
2022/06/19 01:06:04;;;;;;;5.10;3.10;;;;;;;18.17;59.00;98700.79;108032;1277;22591;-77
2022/06/19 01:08:31;;;;;;;5.90;3.10;;;;;;;18.20;58.82;98701.91;108000;1277;22573;-77
2022/06/19 01:10:58;;;;;;;7.40;2.90;;;;;;;18.21;58.91;98702.54;108047;1277;22513;-77
2022/06/19 01:13:29;;;;;;;6.70;2.80;;;;;;;18.20;58.81;98698.49;108011;1277;22585;-76
2022/06/19 01:15:57;;;;;;;5.50;3.10;;;;;;;18.19;58.98;98696.88;108066;1277;22722;-77
2022/06/19 01:18:25;;;;;;;6.20;3.30;;;;;;;18.14;59.02;98696.44;108024;1277;23410;-79
2022/06/19 01:21:00;;;;;;;5.60;3.20;;;;;;;18.10;59.04;98695.05;108047;1277;23391;-77
2022/06/19 01:23:27;;;;;;;4.70;2.90;;;;;;;18.10;59.13;98698.98;108301;1277;22659;-77
2022/06/19 01:25:54;;;;;;;4.90;2.80;;;;;;;18.08;59.51;98699.16;108049;1277;23064;-77
2022/06/19 01:28:54;;;;;;;7.00;2.80;;;;;;;18.07;59.22;98697.02;108009;1277;25231;-78
2022/06/19 01:31:35;;;;;;;5.30;2.90;;;;;;;18.07;59.24;98696.11;108015;1277;22556;-77
2022/06/19 01:37:14;;;;;;;5.10;3.00;;;;;;;18.03;59.22;98690.44;108038;1278;25394;-77
2022/06/19 01:39:46;;;;;;;4.30;2.70;;;;;;;18.04;59.23;98695.17;108059;1277;22577;-77
2022/06/19 01:42:14;;;;;;;6.20;2.90;;;;;;;18.03;59.40;98689.25;108045;1277;22579;-76
2022/06/19 01:44:43;;;;;;;4.00;2.80;;;;;;;18.03;59.27;98685.91;108039;1277;22580;-77
2022/06/19 01:47:11;;;;;;;4.90;2.60;;;;;;;18.04;59.20;98683.19;108058;1277;22582;-78
2022/06/19 01:49:44;;;;;;;4.60;3.00;;;;;;;18.05;59.02;98679.76;108040;1277;22541;-78
2022/06/19 01:52:11;;;;;;;;;;;;;;;18.05;59.26;98678.67;108024;1277;22703;-77
2022/06/19 01:54:44;;;;;;;6.80;3.00;;;;;;;18.05;59.29;98680.09;108044;1277;22558;-76
2022/06/19 01:57:13;;;;;;;6.80;2.80;;;;;;;18.05;59.86;98680.29;108024;1277;23494;-77
2022/06/19 01:59:42;;;;;;;5.20;2.80;;;;;;;18.00;60.21;98680.52;108061;1277;22540;-77
2022/06/19 02:02:12;;;;;;;4.90;3.30;;;;;;;17.99;59.98;98678.88;108051;1277;25414;-78
2022/06/19 02:04:42;;;;;;;6.70;2.60;;;;;;;17.98;59.75;98674.36;108040;1277;22622;-78
2022/06/19 02:07:14;;;;;;;5.30;2.70;;;;;;;17.98;59.55;98676.51;108042;1277;22687;-78
2022/06/19 02:09:41;;;;;;;7.00;2.90;;;;;;;17.96;59.62;98675.44;108021;1277;22668;-77
2022/06/19 02:12:10;;;;;;;6.50;3.10;;;;;;;17.93;59.80;98677.43;108001;1278;22569;-78
2022/06/19 02:14:37;;;;;;;7.20;3.20;;;;;;;17.92;59.68;98673.57;107992;1277;22549;-78
2022/06/19 02:17:11;;;;;;;7.20;2.90;;;;;;;17.90;59.55;98670.89;107985;1277;25363;-79
2022/06/19 02:19:38;;;;;;;7.80;3.30;;;;;;;17.87;59.67;98672.63;108005;1277;22565;-78
2022/06/19 02:22:11;;;;;;;6.20;3.30;;;;;;;17.81;60.21;98671.92;108004;1277;22602;-77
2022/06/19 02:24:39;;;;;;;5.30;2.90;;;;;;;17.76;60.32;98668.59;108021;1277;22548;-77
2022/06/19 02:27:07;;;;;;;6.00;3.00;;;;;;;17.73;60.57;98668.52;107997;1277;22560;-77
2022/06/19 02:29:36;;;;;;;4.20;2.80;;;;;;;17.70;61.36;98667.74;108041;1277;25538;-77
2022/06/19 02:32:05;;;;;;;4.70;3.00;;;;;;;17.60;61.61;98669.50;108032;1277;22568;-77
2022/06/19 02:34:38;;;;;;;6.00;3.10;;;;;;;17.57;61.33;98670.50;108031;1277;22630;-77
2022/06/19 02:37:14;;;;;;;7.50;3.20;;;;;;;17.56;61.19;98669.55;108053;1277;22569;-77
2022/06/19 02:40:00;;;;;;;5.50;3.20;;;;;;;17.53;60.93;98672.58;108052;1278;23433;-78
2022/06/19 02:42:44;;;;;;;5.60;3.20;;;;;;;17.50;61.06;98674.11;108044;1277;23988;-78
2022/06/19 02:45:21;;;;;;;5.70;3.40;;;;;;;17.50;60.86;98677.34;108066;1277;22535;-78
2022/06/19 02:47:51;;;;;;;5.20;3.30;;;;;;;17.52;60.81;98678.14;108064;1277;22581;-78
2022/06/19 02:50:25;;;;;;;6.00;3.50;;;;;;;17.54;60.79;98684.83;107998;1277;26671;-77
2022/06/19 02:52:53;;;;;;;7.90;3.60;;;;;;;17.53;61.02;98687.19;108054;1277;22559;-78
2022/06/19 02:55:21;;;;;;;6.40;3.90;;;;;;;17.52;61.01;98686.82;108027;1277;22553;-77
2022/06/19 02:57:49;;;;;;;4.90;3.10;;;;;;;17.52;60.90;98685.42;108038;1277;22674;-77
2022/06/19 03:00:19;;;;;;;5.30;3.20;;;;;;;17.54;61.29;98686.27;108159;1277;22541;-77
2022/06/19 03:02:49;;;;;;;7.70;3.20;;;;;;;17.55;61.92;98686.84;108016;1277;22619;-78
2022/06/19 03:05:23;;;;;;;6.30;3.90;;;;;;;17.55;62.34;98687.05;108052;1277;22590;-77
2022/06/19 03:07:50;;;;;;;7.50;4.20;;;;;;;17.55;62.04;98685.45;108002;1277;22577;-78
2022/06/19 03:10:17;;;;;;;9.00;3.90;;;;;;;17.60;61.71;98683.07;108031;1277;22604;-77
2022/06/19 03:12:44;;;;;;;6.90;4.30;;;;;;;17.63;61.65;98679.35;108062;1278;22598;-78
2022/06/19 03:15:12;;;;;;;8.40;4.80;;;;;;;17.65;61.67;98682.77;108028;1277;22727;-77
2022/06/19 03:17:40;;;;;;;7.50;4.60;;;;;;;17.66;61.75;98686.98;107979;1277;22569;-77
2022/06/19 03:20:10;;;;;;;10.10;4.70;;;;;;;17.66;61.93;98687.45;107972;1277;22686;-77
2022/06/19 03:22:37;;;;;;;7.20;4.50;;;;;;;17.65;61.90;98683.48;107985;1277;22584;-77
2022/06/19 03:25:04;;;;;;;8.50;4.90;;;;;;;17.66;61.90;98685.55;107992;1277;22693;-77
2022/06/19 03:27:31;;;;;;;6.60;4.10;;;;;;;17.68;62.03;98684.08;108012;1277;24231;-77
2022/06/19 03:29:58;;;;;;;8.10;4.20;;;;;;;17.73;62.47;98682.45;107970;1277;22582;-77
2022/06/19 03:32:25;;;;;;;7.30;4.30;;;;;;;17.76;62.82;98687.55;108035;1277;22594;-77
2022/06/19 03:34:53;;;;;;;9.10;4.90;;;;;;;17.78;62.92;98684.55;108038;1277;22568;-77
2022/06/19 03:37:20;;;;;;;10.70;4.60;;;;;;;17.81;62.65;98688.18;108002;1277;22568;-78
2022/06/19 03:39:46;;;;;;;11.10;5.00;;;;;;;17.85;62.46;98686.16;108055;1277;23253;-77
2022/06/19 03:42:16;;;;;;;8.40;4.50;;;;;;;17.90;62.56;98685.20;108030;1277;22576;-77
2022/06/19 03:44:43;;;;;;;9.10;4.70;;;;;;;17.96;62.15;98681.83;108066;1277;22632;-77
2022/06/19 03:47:15;;;;;;;9.10;4.60;;;;;;;18.01;62.36;98682.16;108019;1277;22566;-77
2022/06/19 03:49:42;;;;;;;8.90;4.50;;;;;;;18.08;62.09;98678.35;108064;1277;22540;-78
2022/06/19 03:52:09;;;;;;;7.50;4.60;;;;;;;18.16;61.89;98681.98;108034;1277;22599;-77
2022/06/19 03:54:36;;;;;;;8.20;4.30;;;;;;;18.23;61.73;98681.13;108039;1277;25306;-77
2022/06/19 03:57:04;;;;;;;8.00;4.40;;;;;;;18.29;61.76;98682.48;108041;1277;22720;-77
2022/06/19 03:59:31;;;;;;;7.80;4.40;;;;;;;18.38;61.84;98683.96;108050;1277;22576;-77
2022/06/19 04:01:58;;;;;;;7.40;4.00;;;;;;;18.48;62.08;98680.09;107965;1277;22566;-77
2022/06/19 04:04:25;;;;;;;8.10;4.20;;;;;;;18.59;62.41;98679.84;108081;1277;25268;-78
2022/06/19 04:06:52;;;;;;;8.30;4.20;;;;;;;18.66;62.21;98679.65;108033;1277;23269;-78
2022/06/19 04:09:19;;;;;;;10.10;4.70;;;;;;;18.75;61.88;98680.01;108041;1277;22767;-77
2022/06/19 04:11:46;;;;;;;8.10;4.60;;;;;;;18.81;61.68;98673.55;107998;1277;22528;-77
2022/06/19 04:14:15;;;;;;;8.70;4.30;;;;;;;18.92;61.09;98671.64;108007;1277;22625;-78
2022/06/19 04:16:43;;;;;;;9.30;4.80;;;;;;;19.01;60.98;98668.52;108036;1277;22586;-78
2022/06/19 04:19:10;;;;;;;7.40;4.70;;;;;;;19.13;60.87;98671.30;108028;1277;23505;-78
2022/06/19 04:21:43;;;;;;;8.20;4.20;;;;;;;19.24;60.80;98671.09;108041;1277;22552;-77
2022/06/19 04:24:14;;;;;;;8.20;4.50;;;;;;;19.33;60.63;98666.10;108021;1277;22592;-77
2022/06/19 04:26:42;;;;;;;7.20;4.50;;;;;;;19.40;60.51;98661.81;108020;1277;23025;-77
2022/06/19 04:29:10;;;;;;;8.30;5.10;;;;;;;19.49;60.40;98666.23;108067;1277;25401;-78
2022/06/19 04:31:37;;;;;;;7.70;4.50;;;;;;;19.57;60.15;98662.93;108080;1277;22542;-77
2022/06/19 04:34:04;;;;;;;8.40;4.20;;;;;;;19.68;59.75;98663.03;108024;1277;22600;-77
2022/06/19 04:36:33;;;;;;;8.40;4.70;;;;;;;19.83;59.62;98659.77;108025;1277;25312;-78
2022/06/19 04:39:00;;;;;;;6.60;4.00;;;;;;;20.03;59.87;98658.55;108021;1277;22557;-77
2022/06/19 04:41:36;;;;;;;6.60;4.30;;;;;;;20.27;59.72;98656.06;108028;1277;26641;-77
2022/06/19 04:44:06;;;;;;;9.60;4.80;;;;;;;20.52;59.17;98648.09;108021;1277;23428;-77
2022/06/19 04:46:34;;;;;;;8.40;4.30;;;;;;;20.81;58.97;98646.27;108021;1277;22563;-77
2022/06/19 04:49:01;;;;;;;7.30;3.90;;;;;;;21.09;57.95;98646.05;108019;1277;22587;-79
2022/06/19 04:51:28;;;;;;;6.90;3.90;;;;;;;21.39;57.37;98646.15;108315;1277;22595;-78
2022/06/19 04:53:55;;;;;;;5.60;3.70;;;;;;;21.71;56.64;98649.55;108042;1277;22698;-78
2022/06/19 04:56:22;;;;;;;7.10;3.50;;;;;;;22.00;55.87;98646.92;108024;1277;23864;-78
2022/06/19 04:58:50;;;;;;;6.40;3.70;;;;;;;22.25;55.56;98648.27;107975;1277;25532;-78
2022/06/19 05:01:25;;;;;;;7.20;3.50;;;;;;;22.53;54.83;98641.18;107979;1277;23278;-79
2022/06/19 05:03:54;;;;;;;7.50;3.70;;;;;;;22.74;52.77;98638.58;107970;1277;22552;-78
2022/06/19 05:06:22;;;;;;;5.20;3.30;;;;;;;22.95;52.79;98634.24;107999;1277;22569;-79
2022/06/19 05:08:50;;;;;;;5.10;3.40;;;;;;;23.16;52.50;98634.50;108008;1277;22550;-78
2022/06/19 05:11:18;;;;;;;5.80;3.40;;;;;;;23.35;51.63;98629.48;108009;1277;22562;-78
2022/06/19 05:13:46;;;;;;;7.80;3.20;;;;;;;23.47;50.20;98625.83;107925;1277;22620;-78
2022/06/19 05:16:19;;;;;;;4.90;3.40;;;;;;;23.53;49.62;98623.23;107997;1277;23436;-79
2022/06/19 05:18:47;;;;;;;7.70;3.40;;;;;;;23.70;50.26;98623.57;108016;1277;22540;-80
2022/06/19 05:21:14;;;;;;;7.20;4.10;;;;;;;23.86;49.78;98620.55;107990;1277;22622;-79
2022/06/19 05:23:45;;;;;;;7.70;3.60;;;;;;;24.02;49.33;98619.63;107974;1277;22575;-79
2022/06/19 05:26:26;;;;;;;7.10;3.70;;;;;;;24.11;48.08;98619.59;107975;1277;22562;-79
2022/06/19 05:28:56;;;;;;;6.70;4.00;;;;;;;24.19;48.25;98613.11;107990;1277;23014;-79
2022/06/19 05:31:24;;;;;;;4.80;3.60;;;;;;;24.27;47.92;98609.13;108012;1277;22572;-79
2022/06/19 05:33:51;;;;;;;8.60;4.20;;;;;;;24.34;47.17;98606.95;107971;1277;25444;-79
2022/06/19 05:36:19;;;;;;;7.30;4.00;;;;;;;24.42;47.09;98608.89;107984;1277;22583;-79
2022/06/19 05:38:46;;;;;;;6.40;3.40;;;;;;;24.45;46.93;98611.17;107978;1277;22571;-79
2022/06/19 05:41:14;;;;;;;6.60;3.80;;;;;;;24.53;46.85;98612.38;107979;1277;22726;-79
2022/06/19 05:43:41;;;;;;;8.00;4.00;;;;;;;24.62;46.51;98605.63;108057;1277;22564;-79
2022/06/19 05:46:24;;;;;;;5.50;3.20;;;;;;;24.67;46.25;98600.72;107988;1277;25256;-79
2022/06/19 05:48:54;;;;;;;9.90;3.40;;;;;;;24.74;46.06;98599.55;108003;1277;22595;-80
2022/06/19 05:51:24;;;;;;;5.40;3.50;;;;;;;24.80;45.70;98597.60;107993;1277;22593;-80
2022/06/19 05:53:54;;;;;;;5.50;3.50;;;;;;;24.82;45.75;98595.21;108006;1277;22571;-79
2022/06/19 05:56:22;;;;;;;6.20;3.50;;;;;;;24.90;45.61;98591.71;108015;1277;22575;-80
2022/06/19 05:58:50;;;;;;;4.70;3.10;;;;;;;24.91;45.21;98594.41;107956;1277;22570;-79
2022/06/19 06:01:22;;;;;;;5.70;2.90;;;;;;;24.95;45.03;98597.71;108010;1279;22580;-78
2022/06/19 06:03:51;;;;;;;5.20;2.90;;;;;;;25.00;44.97;98599.70;108298;1277;22556;-79
2022/06/19 06:06:25;;;;;;;5.30;2.70;;;;;;;24.95;44.77;98596.04;108293;1277;22550;-79
2022/06/19 06:08:55;;;;;;;5.80;2.90;;;;;;;24.95;44.88;98590.48;108281;1277;23982;-79
2022/06/19 06:11:22;;;;;;;4.50;2.40;;;;;;;24.97;44.63;98582.44;108287;1277;22537;-79
2022/06/19 06:13:52;;;;;;;4.60;2.10;;;;;;;24.96;44.63;98579.59;108273;1277;22615;-78
2022/06/19 06:16:22;;;;;;;4.80;2.40;;;;;;;24.96;44.54;98573.55;108282;1277;23980;-79
2022/06/19 06:18:52;;;;;;;3.60;2.20;;;;;;;24.92;44.63;98569.41;108301;1277;22537;-80
2022/06/19 06:21:23;;;;;;;4.90;2.40;;;;;;;24.90;44.51;98564.11;108322;1277;24272;-78
2022/06/19 06:23:55;;;;;;;4.50;2.00;;;;;;;24.90;44.71;98562.01;108276;1277;22572;-79
2022/06/19 06:26:29;;;;;;;3.70;2.10;;;;;;;25.01;44.55;98565.51;108253;1277;22575;-79
2022/06/19 06:28:59;;;;;;;3.50;2.10;;;;;;;25.11;44.16;98564.88;108213;1277;24301;-78
2022/06/19 06:31:28;;;;;;;5.20;2.40;;;;;;;25.03;44.12;98568.19;107982;1277;22557;-80
2022/06/19 06:33:58;;;;;;;4.40;2.20;;;;;;;25.07;43.86;98568.42;107946;1275;22677;-78
2022/06/19 06:36:29;;;;;;;4.10;2.00;;;;;;;25.03;43.86;98569.53;108002;1277;22953;-78
2022/06/19 06:38:58;;;;;;;4.40;2.20;;;;;;;25.06;43.64;98573.36;108148;1277;22961;-79
2022/06/19 06:41:26;;;;;;;4.20;2.20;;;;;;;25.07;43.64;98572.36;107999;1277;22569;-80
2022/06/19 06:43:53;;;;;;;6.40;2.40;;;;;;;25.14;43.85;98569.25;108013;1277;22537;-78
2022/06/19 06:46:23;;;;;;;4.70;2.30;;;;;;;25.19;43.56;98568.03;107968;1277;22547;-80
2022/06/19 06:48:52;;;;;;;5.10;2.40;;;;;;;25.26;43.82;98568.95;107982;1277;22536;-80
2022/06/19 06:51:26;;;;;;;6.80;2.10;;;;;;;25.40;43.87;98567.31;107972;1277;22525;-82
2022/06/19 06:53:55;;;;;;;3.60;2.10;;;;;;;25.50;43.73;98566.60;107951;1277;22599;-80
2022/06/19 06:56:22;;;;;;;6.30;2.80;;;;;;;25.61;43.37;98570.96;107975;1277;23302;-80
2022/06/19 06:58:50;;;;;;;5.20;2.20;;;;;;;25.66;43.38;98566.08;107980;1277;22552;-78
2022/06/19 07:01:20;;;;;;;5.30;2.00;;;;;;;25.76;43.30;98568.09;107973;1277;23308;-80
2022/06/19 07:03:59;;;;;;;4.60;2.20;;;;;;;25.79;43.40;98566.95;108017;1277;23421;-80
2022/06/19 07:06:28;;;;;;;3.30;2.10;;;;;;;25.87;43.75;98563.95;107977;1277;22545;-79
2022/06/19 07:08:56;;;;;;;4.40;2.20;;;;;;;26.03;43.51;98567.60;107973;1277;22665;-80
2022/06/19 07:11:26;;;;;;;5.80;2.50;;;;;;;26.07;43.49;98569.80;107982;1278;25236;-79
2022/06/19 07:13:53;;;;;;;5.40;2.10;;;;;;;26.10;43.26;98562.61;108002;1277;22535;-81
2022/06/19 07:16:20;;;;;;;4.70;2.30;;;;;;;26.17;43.28;98567.13;107945;1277;23378;-81
2022/06/19 07:18:47;;;;;;;4.80;2.20;;;;;;;26.19;43.31;98570.39;108027;1277;22550;-80
2022/06/19 07:21:14;;;;;;;5.20;2.70;;;;;;;26.26;43.41;98566.52;107993;1277;22535;-81
2022/06/19 07:23:41;;;;;;;4.80;2.60;;;;;;;26.34;42.88;98567.09;107955;1277;23811;-80
2022/06/19 07:26:13;;;;;;;6.40;2.60;;;;;;;26.44;42.98;98570.54;107964;1277;23235;-79
2022/06/19 07:28:41;;;;;;;3.70;2.20;;;;;;;26.55;42.60;98568.58;107969;1277;22543;-80
2022/06/19 07:31:10;;;;;;;5.60;2.70;;;;;;;26.67;42.34;98562.41;107989;1277;22682;-79
2022/06/19 07:33:38;;;;;;;3.60;2.30;;;;;;;26.76;42.65;98558.63;107963;1277;22627;-77
2022/06/19 07:36:08;;;;;;;3.90;2.00;;;;;;;26.80;41.97;98556.34;107999;1278;22611;-80
2022/06/19 07:38:35;;;;;;;3.70;2.10;;;;;;;26.83;41.14;98561.58;108011;1277;22576;-79
2022/06/19 07:41:02;;;;;;;3.80;2.20;;;;;;;26.85;41.21;98559.84;107979;1277;22546;-79
2022/06/19 07:43:29;;;;;;;3.80;2.10;;;;;;;26.93;40.78;98555.63;108016;1277;22561;-81
2022/06/19 07:45:56;;;;;;;3.40;2.10;;;;;;;26.91;40.46;98551.43;107969;1278;22574;-80
2022/06/19 07:51:08;;;;;;;8.30;2.10;;;;;;;26.93;40.53;98550.38;108286;1277;22729;-78
2022/06/19 07:53:35;;;;;;;7.10;2.30;;;;;;;27.00;40.68;98545.28;108278;1277;22535;-76
2022/06/19 07:56:03;;;;;;;7.20;2.10;;;;;;;27.03;40.24;98540.81;108284;1277;25361;-77
2022/06/19 07:58:30;;;;;;;3.90;2.20;;;;;;;27.06;40.27;98533.41;108310;1277;22723;-76
2022/06/19 08:00:57;;;;;;;8.60;2.50;;;;;;;27.14;40.27;98531.16;108322;1277;22687;-80
2022/06/19 08:03:24;;;;;;;3.30;2.00;;;;;;;27.22;40.43;98531.37;108254;1277;22555;-79
2022/06/19 08:05:51;;;;;;;5.40;2.10;;;;;;;27.25;40.45;98536.44;108238;1277;25388;-78
2022/06/19 08:08:24;;;;;;;4.30;2.30;;;;;;;27.24;40.12;98531.00;108309;1277;22557;-79
2022/06/19 08:10:54;;;;;;;5.10;2.30;;;;;;;27.28;40.36;98527.32;108309;1277;22546;-79
2022/06/19 08:13:23;;;;;;;5.00;2.10;;;;;;;27.32;40.05;98524.66;108323;1277;22546;-78
2022/06/19 08:15:53;;;;;;;3.40;2.10;;;;;;;27.38;40.60;98524.49;108331;1277;25387;-78
2022/06/19 08:18:20;;;;;;;5.00;2.20;;;;;;;27.48;40.41;98530.46;108304;1278;22565;-81
2022/06/19 08:20:48;;;;;;;5.20;2.20;;;;;;;27.52;40.40;98532.57;108307;1277;24316;-78
2022/06/19 08:23:15;;;;;;;4.20;2.10;;;;;;;27.56;40.08;98531.05;108292;1278;24685;-78
2022/06/19 08:25:43;;;;;;;3.90;1.80;;;;;;;27.60;39.63;98530.29;108323;1278;22672;-81
2022/06/19 08:28:11;;;;;;;4.10;2.20;;;;;;;27.65;39.62;98529.32;108330;1277;22564;-79
2022/06/19 08:30:41;;;;;;;5.90;2.10;;;;;;;27.66;39.01;98528.41;108320;1277;22547;-78
2022/06/19 08:33:08;;;;;;;4.20;2.30;;;;;;;27.75;39.65;98526.70;108266;1277;22737;-80
2022/06/19 08:35:44;;;;;;;4.60;2.10;;;;;;;27.86;38.80;98524.92;108320;1277;22612;-78
2022/06/19 08:38:22;;;;;;;3.40;2.20;;;;;;;27.92;38.94;98520.81;108317;1277;22477;-78
2022/06/19 08:41:07;;;;;;;5.40;2.30;;;;;;;28.04;38.78;98519.56;108292;1277;22560;-77
2022/06/19 08:43:50;;;;;;;4.20;2.10;;;;;;;27.98;39.11;98526.70;108308;1277;22552;-79
2022/06/19 08:46:25;;;;;;;4.10;1.90;;;;;;;28.09;39.31;98524.29;108307;1277;22568;-79
2022/06/19 08:49:17;;;;;;;8.20;2.20;;;;;;;28.18;38.99;98520.02;108299;1277;22570;-79
2022/06/19 08:52:04;;;;;;;4.10;2.10;;;;;;;28.26;39.07;98516.21;108334;1277;22676;-78
2022/06/19 08:55:09;;;;;;;5.40;2.40;;;;;;;28.34;39.19;98517.69;108282;1277;24429;-79
2022/06/19 08:57:54;;;;;;;4.40;2.10;;;;;;;28.38;39.25;98519.55;108321;1277;22558;-79
2022/06/19 09:00:45;;;;;;;4.50;2.50;;;;;;;28.46;39.70;98521.41;108317;1277;22544;-79
2022/06/19 09:03:18;;;;;;;5.40;3.20;;;;;;;28.55;39.75;98513.50;108345;1277;22569;-79
2022/06/19 09:05:58;;;;;;;6.10;2.90;;;;;;;28.64;39.75;98507.69;108325;1277;22575;-78
2022/06/19 09:08:45;;;;;;;6.30;2.80;;;;;;;28.74;39.85;98510.76;108331;1277;22652;-79
2022/06/19 09:11:34;;;;;;;6.80;3.20;;;;;;;28.81;39.52;98508.59;108308;1277;22541;-78
2022/06/19 09:14:33;;;;;;;6.50;2.90;;;;;;;28.82;39.21;98510.39;108316;1277;22632;-79
2022/06/19 09:17:22;;;;;;;5.60;2.90;;;;;;;28.84;39.17;98506.33;108305;1277;22610;-78
2022/06/19 09:20:08;;;;;;;6.10;3.10;;;;;;;28.84;38.76;98503.90;108299;1277;22568;-78
2022/06/19 09:22:52;;;;;;;6.10;3.40;;;;;;;28.79;38.98;98502.27;108099;1277;276170;-78
2022/06/19 09:26:01;;;;;;;8.40;3.40;;;;;;;28.80;38.96;98501.27;108297;1277;22556;-78
2022/06/19 09:28:50;;;;;;;6.60;3.20;;;;;;;28.79;39.01;98496.66;108243;1277;25382;-78
2022/06/19 09:31:26;;;;;;;9.70;3.40;;;;;;;28.78;38.72;98496.45;108296;1277;22615;-78
2022/06/19 09:33:57;;;;;;;4.60;3.00;;;;;;;28.82;38.95;98491.52;108299;1278;22540;-78
2022/06/19 09:36:54;;;;;;;6.90;3.00;;;;;;;28.84;38.46;98491.19;108311;1278;22566;-79
2022/06/19 09:39:49;;;;;;;5.80;3.20;;;;;;;28.86;38.51;98493.86;108310;1277;24227;-83
2022/06/19 09:42:22;;;;;;;6.20;2.90;;;;;;;28.81;38.33;98488.70;107682;1284;22573;-79
2022/06/19 09:44:58;;;;;;;5.20;2.50;;;;;;;28.84;38.53;98481.67;107748;1284;25378;-80
2022/06/19 09:47:38;;;;;;;5.70;2.80;;;;;;;28.88;38.17;98476.72;107709;1284;22565;-78
2022/06/19 09:50:54;;;;;;;7.40;2.90;;;;;;;28.85;38.04;98474.44;107719;1284;22550;-78
2022/06/19 09:53:48;;;;;;;5.40;2.50;;;;;;;28.89;38.01;98474.88;106746;1294;22554;-77
2022/06/19 09:56:42;;;;;;;7.50;2.50;;;;;;;28.97;37.75;98472.39;106744;1293;22583;-78
2022/06/19 09:59:29;;;;;;;4.80;2.40;;;;;;;29.05;37.81;98460.48;106734;1294;22553;-78
2022/06/19 10:02:05;;;;;;;5.60;2.60;;;;;;;29.11;37.12;98464.42;106764;1293;22649;-77
2022/06/19 10:04:38;;;;;;;8.30;2.40;;;;;;;29.22;37.06;98460.89;106749;1292;22666;-79
2022/06/19 10:07:25;;;;;;;4.20;2.30;;;;;;;29.29;37.20;98458.20;106460;1294;22555;-78
2022/06/19 10:10:30;;;;;;;4.90;2.20;;;;;;;29.42;36.59;98457.29;106394;1292;22612;-79
2022/06/19 10:13:00;;;;;;;3.80;2.50;;;;;;;29.52;36.78;98454.92;105973;1296;22568;-79
2022/06/19 10:15:32;;;;;;;5.70;2.30;;;;;;;29.53;36.24;98444.63;106031;1297;22569;-78
2022/06/19 10:18:08;;;;;;;5.70;2.30;;;;;;;29.62;36.32;98443.48;105939;1297;24351;-79
2022/06/19 10:20:48;;;;;;;4.20;2.30;;;;;;;29.71;35.95;98445.12;106589;1290;22589;-79
2022/06/19 10:23:24;;;;;;;5.40;2.10;;;;;;;29.79;35.06;98441.36;106750;1290;22573;-79
2022/06/19 10:26:14;;;;;;;5.40;2.90;;;;;;;29.81;35.04;98438.15;107351;1284;22603;-79
2022/06/19 10:28:47;;;;;;;5.20;2.20;;;;;;;29.94;35.05;98437.16;107358;1284;22780;-79
2022/06/19 10:31:20;;;;;;;7.20;2.10;;;;;;;30.00;34.55;98427.55;107380;1284;22556;-79
2022/06/19 10:34:04;;;;;;;6.30;2.10;;;;;;;30.03;34.00;98427.23;107357;1285;22551;-79
2022/06/19 10:37:18;;;;;;;4.50;1.90;;;;;;;30.03;33.32;98424.66;107352;1284;22573;-80
2022/06/19 10:39:59;;;;;;;4.20;1.80;;;;;;;30.03;33.43;98421.64;106542;1291;22640;-79
2022/06/19 10:42:44;;;;;;;7.00;2.10;;;;;;;30.10;33.32;98418.39;106568;1290;22641;-78
2022/06/19 10:45:23;;;;;;;4.90;1.90;;;;;;;30.20;32.99;98416.54;106566;1291;23052;-78
2022/06/19 10:48:16;;;;;;;6.90;2.30;;;;;;;30.26;33.00;98412.96;106523;1291;22611;-80
2022/06/19 10:51:21;;;;;;;9.10;2.70;;;;;;;30.27;32.59;98408.47;106903;1284;23982;-79
2022/06/19 10:53:56;;;;;;;7.40;2.30;;;;;;;30.33;32.26;98408.37;107351;1284;22556;-79
2022/06/19 10:56:45;;;;;;;7.70;2.30;;;;;;;30.45;32.58;98413.19;107359;1284;22535;-78
2022/06/19 10:59:13;;;;;;;4.60;2.00;;;;;;;30.57;31.92;98410.01;107315;1284;22566;-78
2022/06/19 11:04:39;;;;;;;12.10;4.30;;;;;;;30.54;30.42;98402.42;107346;1284;23315;-78
2022/06/19 11:07:13;;;;;;;15.60;6.00;;;;;;;30.50;30.83;98395.63;107345;1284;22547;-78
2022/06/19 11:09:48;;;;;;;7.80;3.00;;;;;;;30.54;30.87;98397.58;107458;1284;23399;-78
2022/06/19 11:12:33;;;;;;;7.30;2.20;;;;;;;30.61;31.01;98392.27;108002;1278;22549;-80
2022/06/19 11:15:07;;;;;;;8.30;2.20;;;;;;;30.68;31.62;98395.55;107977;1277;22563;-78
2022/06/19 11:17:38;;;;;;;10.90;3.00;;;;;;;30.75;31.45;98395.55;107967;1278;22538;-80
2022/06/19 11:20:27;;;;;;;5.10;2.10;;;;;;;30.78;31.67;98397.52;107991;1277;22541;-80
2022/06/19 11:23:15;;;;;;;5.50;2.40;;;;;;;30.89;31.02;98388.58;107999;1279;22891;-79
2022/06/19 11:25:45;;;;;;;6.80;2.30;;;;;;;30.89;30.54;98384.42;107868;1279;22581;-81
2022/06/19 11:28:15;;;;;;;8.90;2.30;;;;;;;30.96;31.10;98383.67;107863;1279;22540;-81
2022/06/19 11:30:48;;;;;;;8.70;2.30;;;;;;;31.02;31.03;98385.27;107865;1279;22556;-81
2022/06/19 11:33:19;;;;;;;6.60;2.10;;;;;;;31.03;31.43;98384.30;107922;1279;22615;-81
2022/06/19 11:35:48;;;;;;;7.80;2.30;;;;;;;31.11;30.84;98380.73;107886;1279;22562;-81
2022/06/19 11:38:31;;;;;;;6.40;2.30;;;;;;;31.09;30.67;98375.23;107849;1279;22525;-80
2022/06/19 11:40:58;;;;;;;6.90;2.50;;;;;;;31.14;30.99;98373.40;108096;1279;22553;-81
2022/06/19 11:43:30;;;;;;;10.00;2.20;;;;;;;31.15;30.23;98367.77;107887;1279;22554;-79
2022/06/19 11:46:14;;;;;;;13.10;2.40;;;;;;;31.25;30.38;98366.20;107899;1279;25442;-78
2022/06/19 11:48:41;;;;;;;7.70;2.10;;;;;;;31.30;30.80;98363.64;107858;1279;22580;-79
2022/06/19 11:51:17;;;;;;;9.30;2.70;;;;;;;31.35;31.16;98357.86;107891;1279;23451;-78
2022/06/19 11:53:53;;;;;;;11.20;2.40;;;;;;;31.39;30.80;98355.58;107946;1279;24288;-79
2022/06/19 11:56:22;;;;;;;7.20;2.20;;;;;;;31.42;30.45;98350.45;107883;1279;22572;-78
2022/06/19 11:59:32;;;;;;;13.00;2.70;;;;;;;31.43;30.29;98344.41;107898;1279;22544;-78